Ada, Oklahoma
Current Conditions -  °F | °C
As of 7:55 AM on Monday 20 Oct 2014 (Local Time) from KADH Reporting Station
Clear Clear  
Wind Chill: 54°   Ceiling: Unl
Heat Index: 54°   Visibility: 10mi
Dew Point: 52°   Wind: 3mph
Humidity: 94%   Direction: 160°SSE
Pressure: 30.07"   Gusts: NA
Location:  34.78°N, 96.68°W
Report Text: KADH 201255Z AUTO 16003KT 10SM CLR 12/11 A3007 RMK AO2
Loading
Personal Weather Stations






























Interactive Weather Map
Tropical Storm Tracking
New forecast layout! Learn more

10-Day Weather Forecast

Advertisements
Track Severe Weather on mobile